createdAt,value
2023-02-23T00:01:28.204Z,10.51
2023-02-23T00:04:29.681Z,10.51
2023-02-23T00:07:31.085Z,10.41
2023-02-23T00:10:33.565Z,10.50
2023-02-23T00:13:37.558Z,10.45
2023-02-23T00:16:39.003Z,10.40
2023-02-23T00:19:43.372Z,10.47
2023-02-23T00:22:44.815Z,10.52
2023-02-23T00:25:46.642Z,10.53
2023-02-23T00:28:49.292Z,10.50
2023-02-23T00:31:51.904Z,10.46
2023-02-23T00:34:53.662Z,10.35
2023-02-23T00:37:55.369Z,10.44
2023-02-23T00:40:56.842Z,10.33
2023-02-23T00:44:00.115Z,10.35
2023-02-23T00:47:02.561Z,10.41
2023-02-23T00:50:05.099Z,10.35
2023-02-23T00:53:06.558Z,10.25
2023-02-23T00:56:11.277Z,10.32
2023-02-23T00:59:14.275Z,10.27
2023-02-23T01:02:15.791Z,10.29
2023-02-23T01:05:17.608Z,10.22
2023-02-23T01:08:19.161Z,10.31
2023-02-23T01:11:22.995Z,10.17
2023-02-23T01:14:24.902Z,10.24
2023-02-23T01:17:26.360Z,10.24
2023-02-23T01:20:28.120Z,10.17
2023-02-23T01:23:29.625Z,10.21
2023-02-23T01:26:36.554Z,10.09
2023-02-23T01:29:38.077Z,10.04
2023-02-23T01:32:39.591Z,10.11
2023-02-23T01:35:41.389Z,10.13
2023-02-23T01:38:42.887Z,10.18
2023-02-23T01:41:45.176Z,10.09
2023-02-23T01:44:47.854Z,10.13
2023-02-23T01:47:50.650Z,10.21
2023-02-23T01:50:54.548Z,10.14
2023-02-23T01:53:59.307Z,10.10
2023-02-23T01:57:01.895Z,10.06
2023-02-23T02:00:04.229Z,10.09
2023-02-23T02:03:17.418Z,10.13
2023-02-23T02:06:20.374Z,10.21
2023-02-23T02:09:25.605Z,10.07
2023-02-23T02:12:27.180Z,10.15
2023-02-23T02:15:31.595Z,10.09
2023-02-23T02:18:41.821Z,10.13
2023-02-23T02:21:46.948Z,9.92
2023-02-23T02:25:12.518Z,9.79
2023-02-23T02:28:32.687Z,9.97
2023-02-23T02:31:54.832Z,10.07
2023-02-23T02:35:16.314Z,10.04
2023-02-23T02:38:33.169Z,10.10
2023-02-23T02:41:37.128Z,10.02
2023-02-23T02:44:49.814Z,10.10
2023-02-23T02:48:09.001Z,10.13
2023-02-23T02:51:20.173Z,10.19
2023-02-23T02:54:28.752Z,10.12
2023-02-23T02:57:32.265Z,10.04
2023-02-23T03:00:58.654Z,10.08
2023-02-23T03:04:21.254Z,10.08
2023-02-23T03:07:54.690Z,10.14
2023-02-23T03:11:28.362Z,10.13
2023-02-23T03:14:53.890Z,10.04
2023-02-23T03:18:19.246Z,10.04
2023-02-23T03:21:44.900Z,10.09
2023-02-23T03:25:10.227Z,10.13
2023-02-23T03:28:35.262Z,9.98
2023-02-23T03:31:59.025Z,9.86
2023-02-23T03:35:19.278Z,9.87
2023-02-23T03:38:51.609Z,9.69
2023-02-23T03:42:14.275Z,9.77
2023-02-23T03:45:37.779Z,9.71
2023-02-23T03:49:00.344Z,9.78
2023-02-23T03:52:24.310Z,9.76
2023-02-23T03:55:47.184Z,9.83
2023-02-23T03:59:10.623Z,9.86
2023-02-23T04:02:33.118Z,9.69
2023-02-23T04:05:55.123Z,9.70
2023-02-23T04:09:17.090Z,9.66
2023-02-23T04:12:42.652Z,9.68
2023-02-23T04:15:47.481Z,9.71
2023-02-23T04:18:49.655Z,9.61
2023-02-23T04:21:50.979Z,9.70
2023-02-23T04:24:52.340Z,9.70
2023-02-23T04:27:53.696Z,9.73
2023-02-23T04:30:55.169Z,9.74
2023-02-23T04:33:56.583Z,9.65
2023-02-23T04:36:57.935Z,9.70
2023-02-23T04:39:59.322Z,9.63
2023-02-23T04:43:00.717Z,9.63
2023-02-23T04:46:02.121Z,9.50
2023-02-23T04:49:04.159Z,9.47
2023-02-23T04:52:05.619Z,9.67
2023-02-23T04:55:08.318Z,9.65
2023-02-23T04:58:13.511Z,9.60
2023-02-23T05:01:14.930Z,9.65
2023-02-23T05:04:16.293Z,9.65
2023-02-23T05:07:17.728Z,9.56
2023-02-23T05:10:19.165Z,9.45
2023-02-23T05:13:20.589Z,9.43
2023-02-23T05:16:22.114Z,9.46
2023-02-23T05:19:23.841Z,9.52
2023-02-23T05:22:25.163Z,9.47
2023-02-23T05:25:26.534Z,9.56
2023-02-23T05:28:27.856Z,9.48
2023-02-23T05:31:29.377Z,9.51
2023-02-23T05:34:30.708Z,9.55
2023-02-23T05:37:32.024Z,9.69
2023-02-23T05:40:33.526Z,9.75
2023-02-23T05:43:35.381Z,9.78
2023-02-23T05:46:37.226Z,9.78
2023-02-23T05:49:38.564Z,9.82
2023-02-23T05:52:41.447Z,9.78
2023-02-23T05:55:42.802Z,9.78
2023-02-23T05:58:44.334Z,9.57
2023-02-23T06:01:45.935Z,9.54
2023-02-23T06:04:47.327Z,9.64
2023-02-23T06:07:48.659Z,9.69
2023-02-23T06:10:50.115Z,9.69
2023-02-23T06:13:52.267Z,9.71
2023-02-23T06:16:53.712Z,9.77
2023-02-23T06:19:55.167Z,9.78
2023-02-23T06:22:57.658Z,9.74
2023-02-23T06:25:59.954Z,9.55
2023-02-23T06:29:01.483Z,9.51
2023-02-23T06:32:03.350Z,9.49
2023-02-23T06:35:05.954Z,9.68
2023-02-23T06:38:07.610Z,9.60
2023-02-23T06:41:09.877Z,9.51
2023-02-23T06:44:11.224Z,9.55
2023-02-23T06:47:12.560Z,9.53
2023-02-23T06:50:14.530Z,9.51
2023-02-23T06:53:15.889Z,9.51
2023-02-23T06:56:17.241Z,9.56
2023-02-23T06:59:18.599Z,9.65
2023-02-23T07:02:19.933Z,9.80
2023-02-23T07:05:21.332Z,9.77
2023-02-23T07:08:22.726Z,9.78
2023-02-23T07:11:24.090Z,9.86
2023-02-23T07:14:27.124Z,9.93
2023-02-23T07:17:28.627Z,9.94
2023-02-23T07:20:31.286Z,9.96
2023-02-23T07:23:32.794Z,9.83
2023-02-23T07:26:34.832Z,9.90
2023-02-23T07:29:36.165Z,9.87
2023-02-23T07:32:37.632Z,9.89
2023-02-23T07:35:39.011Z,9.90
2023-02-23T07:38:40.350Z,9.75
2023-02-23T07:41:41.710Z,9.88
2023-02-23T07:44:52.210Z,10.03
2023-02-23T07:47:53.600Z,10.03
2023-02-23T07:50:55.012Z,10.03
2023-02-23T07:53:56.516Z,10.09
2023-02-23T07:56:59.217Z,10.01
2023-02-23T08:00:00.881Z,10.03
2023-02-23T08:03:02.420Z,10.21
2023-02-23T08:06:03.839Z,10.34
2023-02-23T08:09:05.679Z,10.33
2023-02-23T08:12:07.039Z,10.37
2023-02-23T08:15:08.622Z,10.50
2023-02-23T08:18:10.414Z,10.53
2023-02-23T08:21:11.918Z,10.45
2023-02-23T08:24:14.159Z,10.44
2023-02-23T08:27:15.592Z,10.44
2023-02-23T08:30:17.153Z,10.54
2023-02-23T08:33:18.565Z,10.49
2023-02-23T08:36:22.963Z,10.44
2023-02-23T08:39:24.366Z,10.51
2023-02-23T08:42:25.689Z,10.62
2023-02-23T08:45:29.290Z,10.48
2023-02-23T08:48:30.626Z,10.56
2023-02-23T08:51:34.795Z,10.72
2023-02-23T08:54:36.172Z,10.75
2023-02-23T08:57:37.530Z,10.83
2023-02-23T09:00:39.165Z,11.00
2023-02-23T09:03:40.793Z,10.87
2023-02-23T09:06:42.185Z,10.87
2023-02-23T09:09:43.673Z,10.80
2023-02-23T09:12:45.132Z,10.71
2023-02-23T09:15:46.620Z,10.83
2023-02-23T09:18:47.970Z,10.77
2023-02-23T09:21:49.346Z,10.45
2023-02-23T09:24:50.700Z,10.71
2023-02-23T09:27:53.345Z,10.63
2023-02-23T09:30:54.673Z,10.58
2023-02-23T09:33:56.094Z,10.86
2023-02-23T09:36:57.406Z,10.82
2023-02-23T09:39:58.735Z,11.04
2023-02-23T09:43:05.949Z,11.29
2023-02-23T09:46:13.327Z,11.35
2023-02-23T09:49:18.607Z,11.49
2023-02-23T09:52:24.075Z,11.54
2023-02-23T09:55:26.313Z,11.73
2023-02-23T09:58:29.051Z,11.84
2023-02-23T10:01:43.508Z,12.04
2023-02-23T10:04:45.017Z,11.93
2023-02-23T10:07:50.477Z,12.25
2023-02-23T10:10:54.847Z,12.39
2023-02-23T10:14:02.867Z,12.44
2023-02-23T10:17:37.412Z,12.56
2023-02-23T10:20:47.684Z,12.57
2023-02-23T10:23:54.181Z,12.75
2023-02-23T10:27:04.687Z,12.76
2023-02-23T10:30:16.181Z,12.42
2023-02-23T10:33:22.977Z,12.61
2023-02-23T10:36:30.371Z,12.33
2023-02-23T10:39:32.721Z,12.43
2023-02-23T10:42:34.194Z,12.33
2023-02-23T10:45:39.311Z,12.61
2023-02-23T10:48:43.064Z,12.44
2023-02-23T10:51:45.253Z,12.28
2023-02-23T10:54:50.834Z,12.53
2023-02-23T10:58:21.603Z,12.84
2023-02-23T11:01:41.928Z,13.72
2023-02-23T11:04:51.015Z,13.90
2023-02-23T11:08:08.753Z,13.82
2023-02-23T11:11:16.257Z,13.12
2023-02-23T11:14:17.626Z,13.48
2023-02-23T11:17:27.878Z,14.14
2023-02-23T11:20:33.294Z,14.81
2023-02-23T11:23:36.385Z,13.98
2023-02-23T11:26:40.818Z,13.75
2023-02-23T11:29:44.682Z,13.34
2023-02-23T11:32:50.497Z,13.54
2023-02-23T11:35:59.758Z,13.49
2023-02-23T11:39:03.992Z,13.59
2023-02-23T11:42:16.891Z,13.57
2023-02-23T11:45:22.692Z,13.52
2023-02-23T11:48:27.210Z,13.61
2023-02-23T11:51:34.067Z,13.78
2023-02-23T11:54:35.520Z,13.76
2023-02-23T11:57:37.150Z,13.62
2023-02-23T12:00:38.863Z,13.55
2023-02-23T12:03:45.264Z,13.56
2023-02-23T12:06:46.628Z,13.37
2023-02-23T12:09:50.236Z,13.48
2023-02-23T12:12:57.738Z,13.56
2023-02-23T12:16:06.031Z,13.98
2023-02-23T12:19:28.751Z,13.79
2023-02-23T12:22:35.660Z,13.65
2023-02-23T12:25:43.844Z,13.86
2023-02-23T12:28:52.557Z,13.57
2023-02-23T12:32:08.910Z,13.20
2023-02-23T12:35:31.099Z,13.55
2023-02-23T12:38:38.756Z,13.56
2023-02-23T12:41:45.022Z,13.67
2023-02-23T12:44:51.545Z,13.63
2023-02-23T12:48:02.404Z,13.84
2023-02-23T12:51:06.398Z,13.99
2023-02-23T12:54:09.500Z,13.95
2023-02-23T12:57:10.794Z,14.24
2023-02-23T13:00:31.178Z,14.47
2023-02-23T13:03:50.863Z,14.33
2023-02-23T13:07:02.788Z,14.03
2023-02-23T13:10:24.082Z,13.99
2023-02-23T13:13:33.761Z,13.72
2023-02-23T13:16:48.221Z,13.78
2023-02-23T13:19:53.624Z,13.74
2023-02-23T13:22:59.619Z,13.75
2023-02-23T13:26:10.139Z,13.73
2023-02-23T13:29:31.624Z,13.85
2023-02-23T13:32:33.986Z,13.97
2023-02-23T13:35:38.341Z,13.93
2023-02-23T13:39:01.324Z,13.53
2023-02-23T13:42:22.858Z,13.63
2023-02-23T13:45:42.966Z,13.82
2023-02-23T13:48:59.293Z,13.81
2023-02-23T13:52:10.542Z,13.60
2023-02-23T13:55:29.468Z,13.83
2023-02-23T13:58:34.495Z,13.88
2023-02-23T14:01:37.802Z,13.83
2023-02-23T14:04:42.033Z,13.72
2023-02-23T14:07:45.398Z,13.60
2023-02-23T14:10:46.802Z,13.59
2023-02-23T14:13:58.472Z,13.79
2023-02-23T14:17:14.973Z,13.84
2023-02-23T14:20:29.522Z,13.76
2023-02-23T14:23:31.491Z,13.75
2023-02-23T14:26:32.797Z,13.53
2023-02-23T14:29:44.594Z,13.56
2023-02-23T14:32:47.153Z,13.45
2023-02-23T14:35:48.514Z,13.45
2023-02-23T14:38:55.893Z,13.51
2023-02-23T14:42:00.470Z,13.25
2023-02-23T14:45:07.532Z,13.45
2023-02-23T14:48:12.836Z,13.26
2023-02-23T14:51:21.697Z,13.33
2023-02-23T14:54:39.596Z,13.45
2023-02-23T14:57:42.408Z,13.18
2023-02-23T15:00:43.932Z,13.34
2023-02-23T15:04:04.603Z,13.35
2023-02-23T15:07:06.906Z,13.25
2023-02-23T15:10:10.742Z,13.31
2023-02-23T15:13:18.415Z,13.36
2023-02-23T15:16:31.924Z,13.48
2023-02-23T15:19:35.337Z,13.34
2023-02-23T15:22:38.184Z,13.27
2023-02-23T15:25:40.259Z,13.26
2023-02-23T15:28:41.651Z,13.31
2023-02-23T15:31:52.131Z,13.37
2023-02-23T15:34:55.971Z,13.35
2023-02-23T15:38:11.247Z,12.93
2023-02-23T15:41:37.249Z,12.80
2023-02-23T15:44:44.409Z,12.70
2023-02-23T15:47:46.385Z,12.88
2023-02-23T15:50:50.197Z,12.53
2023-02-23T15:53:51.753Z,12.81
2023-02-23T15:56:57.441Z,12.82
2023-02-23T16:00:00.494Z,12.90
2023-02-23T16:03:03.240Z,12.66
2023-02-23T16:06:06.741Z,12.47
2023-02-23T16:09:13.508Z,12.44
2023-02-23T16:12:18.663Z,12.42
2023-02-23T16:15:32.872Z,12.58
2023-02-23T16:18:43.395Z,12.37
2023-02-23T16:21:49.434Z,12.65
2023-02-23T16:24:56.952Z,12.37
2023-02-23T16:28:08.322Z,12.40
2023-02-23T16:31:13.775Z,12.49
2023-02-23T16:34:24.425Z,12.32
2023-02-23T16:37:27.797Z,12.33
2023-02-23T16:40:29.286Z,12.35
2023-02-23T16:43:31.735Z,12.43
2023-02-23T16:46:52.033Z,12.34
2023-02-23T16:49:53.339Z,12.37
2023-02-23T16:52:55.031Z,12.27
2023-02-23T16:56:00.810Z,12.19
2023-02-23T16:59:02.949Z,12.07
2023-02-23T17:02:09.768Z,12.05
2023-02-23T17:05:15.743Z,12.14
2023-02-23T17:08:17.281Z,12.18
2023-02-23T17:11:18.920Z,12.19
2023-02-23T17:14:27.960Z,12.11
2023-02-23T17:17:31.328Z,12.09
2023-02-23T17:20:33.153Z,12.04
2023-02-23T17:23:42.369Z,11.99
2023-02-23T17:26:43.705Z,11.95
2023-02-23T17:29:45.052Z,11.90
2023-02-23T17:32:46.560Z,11.88
2023-02-23T17:35:47.957Z,11.79
2023-02-23T17:38:49.380Z,11.74
2023-02-23T17:41:50.870Z,11.67
2023-02-23T17:44:53.368Z,11.66
2023-02-23T17:47:54.993Z,11.54
2023-02-23T17:53:12.394Z,11.35
2023-02-23T17:56:13.873Z,11.24
2023-02-23T17:59:15.436Z,10.86
2023-02-23T18:02:20.704Z,10.69
2023-02-23T18:05:22.272Z,10.70
2023-02-23T18:08:23.716Z,10.76
2023-02-23T18:11:25.433Z,10.89
2023-02-23T18:14:27.742Z,10.94
2023-02-23T18:17:32.411Z,10.93
2023-02-23T18:20:33.902Z,10.87
2023-02-23T18:23:35.913Z,10.71
2023-02-23T18:26:37.773Z,10.68
2023-02-23T18:29:39.498Z,10.78
2023-02-23T18:32:41.162Z,10.77
2023-02-23T18:35:45.423Z,10.73
2023-02-23T18:38:46.944Z,10.79
2023-02-23T18:41:49.669Z,10.49
2023-02-23T18:44:51.095Z,10.57
2023-02-23T18:47:52.611Z,10.67
2023-02-23T18:50:59.083Z,10.67
2023-02-23T18:54:03.049Z,10.34
2023-02-23T18:57:05.666Z,10.30
2023-02-23T19:00:10.969Z,10.18
2023-02-23T19:03:12.863Z,10.38
2023-02-23T19:06:16.103Z,10.50
2023-02-23T19:09:21.054Z,10.54
2023-02-23T19:12:22.447Z,10.58
2023-02-23T19:15:24.002Z,10.58
2023-02-23T19:18:27.449Z,10.38
2023-02-23T19:21:28.960Z,10.13
2023-02-23T19:24:30.431Z,9.93
2023-02-23T19:27:34.440Z,9.86
2023-02-23T19:30:35.843Z,9.86
2023-02-23T19:33:38.143Z,9.78
2023-02-23T19:36:40.019Z,9.94
2023-02-23T19:39:41.596Z,10.06
2023-02-23T19:42:45.811Z,10.39
2023-02-23T19:45:48.238Z,10.53
2023-02-23T19:48:51.972Z,10.53
2023-02-23T19:51:53.528Z,10.46
2023-02-23T19:54:54.921Z,10.46
2023-02-23T19:57:56.474Z,10.35
2023-02-23T20:01:07.833Z,10.42
2023-02-23T20:04:09.750Z,10.37
2023-02-23T20:07:11.524Z,10.29
2023-02-23T20:10:16.782Z,10.23
2023-02-23T20:13:19.203Z,10.33
2023-02-23T20:16:21.354Z,10.40
2023-02-23T20:19:22.842Z,10.40
2023-02-23T20:22:24.242Z,10.46
2023-02-23T20:25:27.177Z,10.30
2023-02-23T20:28:28.602Z,10.29
2023-02-23T20:31:33.520Z,10.40
2023-02-23T20:34:35.573Z,10.36
2023-02-23T20:37:37.402Z,10.36
2023-02-23T20:40:39.114Z,10.35
2023-02-23T20:43:40.802Z,10.33
2023-02-23T20:46:43.730Z,10.29
2023-02-23T20:49:45.140Z,10.22
2023-02-23T20:52:47.060Z,10.10
2023-02-23T20:55:49.172Z,9.99
2023-02-23T20:58:50.733Z,10.03
2023-02-23T21:01:52.662Z,10.07
2023-02-23T21:04:54.505Z,10.08
2023-02-23T21:08:05.646Z,10.06
2023-02-23T21:11:08.767Z,10.00
2023-02-23T21:14:10.197Z,10.00
2023-02-23T21:17:11.631Z,9.97
2023-02-23T21:20:13.965Z,9.92
2023-02-23T21:23:17.489Z,10.00
2023-02-23T21:26:21.500Z,9.94
2023-02-23T21:29:23.667Z,9.94
2023-02-23T21:32:26.926Z,9.96
2023-02-23T21:35:28.413Z,10.09
2023-02-23T21:38:29.915Z,9.74
2023-02-23T21:41:33.639Z,9.84
2023-02-23T21:44:35.081Z,9.92
2023-02-23T21:47:38.164Z,9.90
2023-02-23T21:50:39.620Z,10.03
2023-02-23T21:53:42.213Z,10.18
2023-02-23T21:56:43.657Z,10.04
2023-02-23T21:59:45.265Z,10.04
2023-02-23T22:02:47.035Z,10.07
2023-02-23T22:05:48.513Z,10.05
2023-02-23T22:08:50.517Z,10.06
2023-02-23T22:11:51.954Z,9.96
2023-02-23T22:14:54.020Z,10.10
2023-02-23T22:17:56.301Z,10.12
2023-02-23T22:20:58.361Z,10.09
2023-02-23T22:24:01.532Z,10.02
2023-02-23T22:27:04.085Z,9.97
2023-02-23T22:30:06.484Z,10.01
2023-02-23T22:33:07.916Z,9.98
2023-02-23T22:36:18.600Z,9.65
2023-02-23T22:39:20.159Z,9.57
2023-02-23T22:42:24.238Z,9.56
2023-02-23T22:45:25.679Z,9.50
2023-02-23T22:48:28.501Z,9.59
2023-02-23T22:51:30.374Z,9.81
2023-02-23T22:54:35.238Z,9.92
2023-02-23T22:57:39.928Z,9.95
2023-02-23T23:01:01.789Z,9.93
2023-02-23T23:04:10.456Z,9.65
2023-02-23T23:07:12.036Z,9.58
2023-02-23T23:10:15.950Z,9.59
2023-02-23T23:13:17.695Z,9.61
2023-02-23T23:16:31.505Z,9.52
2023-02-23T23:19:43.334Z,9.55
2023-02-23T23:22:44.786Z,9.70
2023-02-23T23:25:49.199Z,9.70
2023-02-23T23:28:54.918Z,9.64
2023-02-23T23:32:00.901Z,9.54
2023-02-23T23:35:03.996Z,9.53
2023-02-23T23:38:06.103Z,9.59
2023-02-23T23:41:15.012Z,9.61
2023-02-23T23:44:19.542Z,9.67
2023-02-23T23:47:21.057Z,9.66
2023-02-23T23:50:26.932Z,9.71
2023-02-23T23:53:28.732Z,9.57
2023-02-23T23:56:37.412Z,9.48
2023-02-23T23:59:45.998Z,9.44
